This is the latest recevied weather packets stored in our database for station/object KN6ZYR. If no packets are shown the sender has not sent any weather packets the latest 1 day(s).
| Time | Temp. | Humidity | Pressure | Rain* | Wind** | Luminosity | Snow |
|---|---|---|---|---|---|---|---|
| 1778063213 | 12.22° C | 63% | 1021 hPa | 0 mm | - | 0 W/m² | - |
| 1778062910 | 12.22° C | 63% | 1021 hPa | 0 mm | - | 0 W/m² | - |
| 1778062607 | 12.22° C | 64% | 1020.7 hPa | 0 mm | - | 0 W/m² | - |
| 1778062304 | 12.22° C | 63% | 1020.6 hPa | 0 mm | - | 0 W/m² | - |
| 1778062002 | 11.11° C | 68% | 1020.9 hPa | 0 mm | - | 0 W/m² | - |
| 1778061700 | 11.11° C | 72% | 1020.7 hPa | 0 mm | - | 0 W/m² | - |
| 1778061398 | 11.11° C | 72% | 1020.7 hPa | 0 mm | - | 0 W/m² | - |
| 1778060792 | 10.56° C | 72% | 1020.8 hPa | 0 mm | - | 0 W/m² | - |
| 1778060490 | 11.11° C | 71% | 1020.9 hPa | 0 mm | - | 0 W/m² | - |
| 1778060188 | 11.11° C | 69% | 1020.8 hPa | 0 mm | - | 0 W/m² | - |
| 1778059885 | 11.11° C | 71% | 1020.7 hPa | 0 mm | - | 0 W/m² | - |
| 1778059583 | 11.11° C | 70% | 1020.9 hPa | 0 mm | - | 0 W/m² | - |
| 1778058675 | 11.11° C | 72% | 1020.8 hPa | 0 mm | - | 0 W/m² | - |
| 1778058373 | 11.11° C | 71% | 1020.7 hPa | 0 mm | - | 0 W/m² | - |
| 1778057462 | 11.11° C | 70% | 1020.7 hPa | 0 mm | - | 0 W/m² | - |
| 1778057159 | 11.67° C | 70% | 1020.9 hPa | 0 mm | - | 0 W/m² | - |
| 1778055946 | 11.67° C | 69% | 1020.7 hPa | 0 mm | - | 0 W/m² | - |
| 1778055642 | 11.67° C | 68% | 1020.6 hPa | 0 mm | - | 0 W/m² | - |
| 1778054735 | 12.78° C | 58% | 1020.6 hPa | 0 mm | - | 0 W/m² | - |
| 1778054432 | 12.78° C | 58% | 1020.5 hPa | 0 mm | - | 0 W/m² | - |
| 1778054130 | 13.33° C | 56% | 1020.5 hPa | 0 mm | - | 0 W/m² | - |
| 1778053524 | 12.78° C | 61% | 1020.6 hPa | 0 mm | - | 0 W/m² | - |
| 1778053221 | 12.78° C | 61% | 1020.8 hPa | 0 mm | - | 0 W/m² | - |
| 1778050799 | 11.67° C | 71% | 1020.5 hPa | 0 mm | - | 0 W/m² | - |
| 1778050497 | 12.22° C | 68% | 1020.4 hPa | 0 mm | - | 0 W/m² | - |
* Rain latest hour (hover to see other rain measurements)
** Current wind speed in m/s (hover to see current wind gust speed)